sensor_id;sensor_type;location;lat;lon;timestamp;pressure;altitude;pressure_sealevel;temperature;humidity
55277;BME280;41136;51.478;-2.610;2023-04-01T00:01:48;99224.72;;;9.92;100.00
55277;BME280;41136;51.478;-2.610;2023-04-01T00:04:13;99220.56;;;10.16;100.00
55277;BME280;41136;51.478;-2.610;2023-04-01T00:06:39;99218.09;;;9.88;100.00
55277;BME280;41136;51.478;-2.610;2023-04-01T00:09:05;99219.99;;;10.04;100.00
55277;BME280;41136;51.478;-2.610;2023-04-01T00:11:30;99221.87;;;10.23;100.00
55277;BME280;41136;51.478;-2.610;2023-04-01T00:13:56;99227.38;;;10.05;100.00
55277;BME280;41136;51.478;-2.610;2023-04-01T00:16:22;99225.77;;;9.60;100.00
55277;BME280;41136;51.478;-2.610;2023-04-01T00:18:48;99232.20;;;9.67;100.00
55277;BME280;41136;51.478;-2.610;2023-04-01T00:21:12;99237.12;;;9.83;100.00
55277;BME280;41136;51.478;-2.610;2023-04-01T00:23:38;99235.83;;;9.94;100.00
55277;BME280;41136;51.478;-2.610;2023-04-01T00:26:03;99233.89;;;9.73;100.00
55277;BME280;41136;51.478;-2.610;2023-04-01T00:28:29;99240.77;;;10.02;100.00
55277;BME280;41136;51.478;-2.610;2023-04-01T00:30:53;99240.19;;;9.72;100.00
55277;BME280;41136;51.478;-2.610;2023-04-01T00:33:19;99243.12;;;9.42;100.00
55277;BME280;41136;51.478;-2.610;2023-04-01T00:35:45;99240.93;;;9.94;100.00
55277;BME280;41136;51.478;-2.610;2023-04-01T00:38:11;99247.27;;;9.55;100.00
55277;BME280;41136;51.478;-2.610;2023-04-01T00:40:38;99248.64;;;9.04;100.00
55277;BME280;41136;51.478;-2.610;2023-04-01T00:43:02;99244.38;;;9.16;100.00
55277;BME280;41136;51.478;-2.610;2023-04-01T00:49:45;99243.67;;;9.64;100.00
55277;BME280;41136;51.478;-2.610;2023-04-01T00:52:08;99247.29;;;9.35;100.00
55277;BME280;41136;51.478;-2.610;2023-04-01T00:54:32;99244.32;;;9.35;100.00
55277;BME280;41136;51.478;-2.610;2023-04-01T00:57:01;99248.73;;;9.35;100.00
55277;BME280;41136;51.478;-2.610;2023-04-01T00:59:25;99256.26;;;10.15;100.00
55277;BME280;41136;51.478;-2.610;2023-04-01T01:01:49;99254.31;;;9.92;100.00
55277;BME280;41136;51.478;-2.610;2023-04-01T01:04:23;99260.04;;;9.84;100.00
55277;BME280;41136;51.478;-2.610;2023-04-01T01:06:46;99261.94;;;9.81;100.00
55277;BME280;41136;51.478;-2.610;2023-04-01T01:09:14;99258.85;;;10.16;100.00
55277;BME280;41136;51.478;-2.610;2023-04-01T01:11:36;99260.75;;;10.02;100.00
55277;BME280;41136;51.478;-2.610;2023-04-01T01:14:01;99263.26;;;10.02;100.00
55277;BME280;41136;51.478;-2.610;2023-04-01T01:16:25;99269.12;;;9.76;100.00
55277;BME280;41136;51.478;-2.610;2023-04-01T01:18:52;99265.07;;;10.00;100.00
55277;BME280;41136;51.478;-2.610;2023-04-01T01:23:53;99272.67;;;9.99;100.00
55277;BME280;41136;51.478;-2.610;2023-04-01T01:26:20;99272.95;;;9.40;100.00
55277;BME280;41136;51.478;-2.610;2023-04-01T01:28:40;99268.17;;;9.91;100.00
55277;BME280;41136;51.478;-2.610;2023-04-01T01:31:00;99270.62;;;9.92;100.00
55277;BME280;41136;51.478;-2.610;2023-04-01T01:33:32;99276.11;;;9.98;100.00
55277;BME280;41136;51.478;-2.610;2023-04-01T01:35:48;99275.75;;;9.83;100.00
55277;BME280;41136;51.478;-2.610;2023-04-01T01:38:14;99278.73;;;10.11;100.00
55277;BME280;41136;51.478;-2.610;2023-04-01T01:40:40;99279.51;;;9.82;100.00
55277;BME280;41136;51.478;-2.610;2023-04-01T01:43:05;99282.41;;;8.65;100.00
55277;BME280;41136;51.478;-2.610;2023-04-01T01:45:29;99286.69;;;9.27;100.00
55277;BME280;41136;51.478;-2.610;2023-04-01T01:47:55;99286.21;;;9.16;100.00
55277;BME280;41136;51.478;-2.610;2023-04-01T01:50:20;99285.21;;;9.63;100.00
55277;BME280;41136;51.478;-2.610;2023-04-01T01:52:45;99289.29;;;9.01;100.00
55277;BME280;41136;51.478;-2.610;2023-04-01T01:57:38;99298.41;;;8.55;100.00
55277;BME280;41136;51.478;-2.610;2023-04-01T02:00:06;99292.59;;;9.50;100.00
55277;BME280;41136;51.478;-2.610;2023-04-01T02:02:27;99297.50;;;9.54;100.00
55277;BME280;41136;51.478;-2.610;2023-04-01T02:04:52;99300.15;;;9.40;100.00
55277;BME280;41136;51.478;-2.610;2023-04-01T02:07:21;99301.09;;;9.25;100.00
55277;BME280;41136;51.478;-2.610;2023-04-01T02:09:43;99302.69;;;8.88;100.00
55277;BME280;41136;51.478;-2.610;2023-04-01T02:12:12;99307.62;;;9.53;100.00
55277;BME280;41136;51.478;-2.610;2023-04-01T02:14:39;99307.23;;;8.70;100.00
55277;BME280;41136;51.478;-2.610;2023-04-01T02:17:03;99307.80;;;8.65;100.00
55277;BME280;41136;51.478;-2.610;2023-04-01T02:19:29;99308.56;;;8.56;100.00
55277;BME280;41136;51.478;-2.610;2023-04-01T02:21:51;99315.89;;;8.89;100.00
55277;BME280;41136;51.478;-2.610;2023-04-01T02:24:15;99317.65;;;8.79;100.00
55277;BME280;41136;51.478;-2.610;2023-04-01T02:26:41;99324.12;;;8.73;100.00
55277;BME280;41136;51.478;-2.610;2023-04-01T02:29:06;99326.81;;;8.75;100.00
55277;BME280;41136;51.478;-2.610;2023-04-01T02:31:31;99323.59;;;8.75;100.00
55277;BME280;41136;51.478;-2.610;2023-04-01T02:33:56;99324.78;;;9.12;100.00
55277;BME280;41136;51.478;-2.610;2023-04-01T02:36:21;99325.43;;;8.74;100.00
55277;BME280;41136;51.478;-2.610;2023-04-01T02:38:48;99324.29;;;9.05;100.00
55277;BME280;41136;51.478;-2.610;2023-04-01T02:41:12;99325.66;;;8.50;100.00
55277;BME280;41136;51.478;-2.610;2023-04-01T02:43:37;99328.03;;;8.40;100.00
55277;BME280;41136;51.478;-2.610;2023-04-01T02:46:03;99331.61;;;8.63;100.00
55277;BME280;41136;51.478;-2.610;2023-04-01T02:48:28;99334.54;;;8.61;100.00
55277;BME280;41136;51.478;-2.610;2023-04-01T02:50:53;99333.78;;;9.25;100.00
55277;BME280;41136;51.478;-2.610;2023-04-01T02:53:18;99332.87;;;8.89;100.00
55277;BME280;41136;51.478;-2.610;2023-04-01T02:55:43;99333.95;;;8.98;100.00
55277;BME280;41136;51.478;-2.610;2023-04-01T02:58:08;99335.12;;;9.27;100.00
55277;BME280;41136;51.478;-2.610;2023-04-01T03:00:34;99337.12;;;9.14;100.00
55277;BME280;41136;51.478;-2.610;2023-04-01T03:02:59;99332.47;;;8.89;100.00
55277;BME280;41136;51.478;-2.610;2023-04-01T03:05:24;99339.94;;;8.62;100.00
55277;BME280;41136;51.478;-2.610;2023-04-01T03:07:49;99340.37;;;9.05;100.00
55277;BME280;41136;51.478;-2.610;2023-04-01T03:10:15;99338.25;;;9.10;100.00
55277;BME280;41136;51.478;-2.610;2023-04-01T03:12:40;99342.14;;;8.90;100.00
55277;BME280;41136;51.478;-2.610;2023-04-01T03:15:06;99342.63;;;8.87;100.00
55277;BME280;41136;51.478;-2.610;2023-04-01T03:19:17;99340.75;;;8.75;100.00
55277;BME280;41136;51.478;-2.610;2023-04-01T03:21:42;99338.03;;;9.11;100.00
55277;BME280;41136;51.478;-2.610;2023-04-01T03:24:08;99340.55;;;8.41;100.00
55277;BME280;41136;51.478;-2.610;2023-04-01T03:26:33;99340.27;;;8.75;100.00
55277;BME280;41136;51.478;-2.610;2023-04-01T03:28:58;99342.92;;;9.68;100.00
55277;BME280;41136;51.478;-2.610;2023-04-01T03:31:24;99342.50;;;9.04;100.00
55277;BME280;41136;51.478;-2.610;2023-04-01T03:33:49;99343.76;;;8.77;100.00
55277;BME280;41136;51.478;-2.610;2023-04-01T03:36:14;99347.01;;;8.88;100.00
55277;BME280;41136;51.478;-2.610;2023-04-01T03:38:40;99343.95;;;8.78;100.00
55277;BME280;41136;51.478;-2.610;2023-04-01T03:41:05;99343.83;;;8.83;100.00
55277;BME280;41136;51.478;-2.610;2023-04-01T03:43:30;99343.13;;;9.18;100.00
55277;BME280;41136;51.478;-2.610;2023-04-01T03:45:55;99347.71;;;8.57;100.00
55277;BME280;41136;51.478;-2.610;2023-04-01T03:48:20;99347.70;;;9.01;100.00
55277;BME280;41136;51.478;-2.610;2023-04-01T03:50:46;99348.63;;;9.37;100.00
55277;BME280;41136;51.478;-2.610;2023-04-01T03:53:11;99348.60;;;9.36;100.00
55277;BME280;41136;51.478;-2.610;2023-04-01T03:55:37;99350.18;;;8.90;100.00
55277;BME280;41136;51.478;-2.610;2023-04-01T03:58:02;99350.92;;;8.72;100.00
55277;BME280;41136;51.478;-2.610;2023-04-01T04:00:27;99351.35;;;8.51;100.00
55277;BME280;41136;51.478;-2.610;2023-04-01T04:02:52;99356.07;;;8.67;100.00
55277;BME280;41136;51.478;-2.610;2023-04-01T04:05:18;99360.71;;;8.90;100.00
55277;BME280;41136;51.478;-2.610;2023-04-01T04:07:43;99362.87;;;8.84;100.00
55277;BME280;41136;51.478;-2.610;2023-04-01T04:10:09;99365.39;;;9.17;100.00
55277;BME280;41136;51.478;-2.610;2023-04-01T04:12:34;99368.43;;;8.91;100.00
55277;BME280;41136;51.478;-2.610;2023-04-01T04:14:59;99370.11;;;8.99;100.00
55277;BME280;41136;51.478;-2.610;2023-04-01T04:17:24;99371.39;;;8.67;100.00
55277;BME280;41136;51.478;-2.610;2023-04-01T04:19:50;99377.75;;;8.33;100.00
55277;BME280;41136;51.478;-2.610;2023-04-01T04:22:15;99378.92;;;7.75;100.00
55277;BME280;41136;51.478;-2.610;2023-04-01T04:24:41;99382.15;;;8.58;100.00
55277;BME280;41136;51.478;-2.610;2023-04-01T04:27:06;99387.00;;;8.64;100.00
55277;BME280;41136;51.478;-2.610;2023-04-01T04:29:31;99385.70;;;8.28;100.00
55277;BME280;41136;51.478;-2.610;2023-04-01T04:31:57;99388.53;;;7.94;100.00
55277;BME280;41136;51.478;-2.610;2023-04-01T04:34:22;99391.33;;;7.90;100.00
55277;BME280;41136;51.478;-2.610;2023-04-01T04:36:49;99391.69;;;8.72;100.00
55277;BME280;41136;51.478;-2.610;2023-04-01T04:39:14;99392.55;;;8.53;100.00
55277;BME280;41136;51.478;-2.610;2023-04-01T04:41:40;99397.92;;;8.70;100.00
55277;BME280;41136;51.478;-2.610;2023-04-01T04:44:04;99399.68;;;8.85;100.00
55277;BME280;41136;51.478;-2.610;2023-04-01T04:46:30;99402.64;;;8.72;100.00
55277;BME280;41136;51.478;-2.610;2023-04-01T04:48:55;99403.80;;;8.64;100.00
55277;BME280;41136;51.478;-2.610;2023-04-01T04:51:21;99403.33;;;8.53;100.00
55277;BME280;41136;51.478;-2.610;2023-04-01T04:53:46;99404.92;;;9.33;100.00
55277;BME280;41136;51.478;-2.610;2023-04-01T04:56:12;99403.15;;;8.74;100.00
55277;BME280;41136;51.478;-2.610;2023-04-01T04:58:38;99409.65;;;8.33;100.00
55277;BME280;41136;51.478;-2.610;2023-04-01T05:01:06;99409.11;;;8.69;100.00
55277;BME280;41136;51.478;-2.610;2023-04-01T05:03:27;99403.72;;;8.57;100.00
55277;BME280;41136;51.478;-2.610;2023-04-01T05:05:53;99405.65;;;8.71;100.00
55277;BME280;41136;51.478;-2.610;2023-04-01T05:08:18;99409.01;;;8.71;100.00
55277;BME280;41136;51.478;-2.610;2023-04-01T05:10:44;99416.48;;;8.44;100.00
55277;BME280;41136;51.478;-2.610;2023-04-01T05:13:09;99416.86;;;8.34;100.00
55277;BME280;41136;51.478;-2.610;2023-04-01T05:15:35;99414.44;;;9.08;100.00
55277;BME280;41136;51.478;-2.610;2023-04-01T05:17:59;99414.71;;;8.78;100.00
55277;BME280;41136;51.478;-2.610;2023-04-01T05:20:25;99415.57;;;9.24;100.00
55277;BME280;41136;51.478;-2.610;2023-04-01T05:22:53;99421.63;;;8.85;100.00
55277;BME280;41136;51.478;-2.610;2023-04-01T05:25:15;99426.89;;;8.64;100.00
55277;BME280;41136;51.478;-2.610;2023-04-01T05:27:41;99428.69;;;9.17;100.00
55277;BME280;41136;51.478;-2.610;2023-04-01T05:30:07;99432.45;;;8.48;100.00
55277;BME280;41136;51.478;-2.610;2023-04-01T05:32:31;99433.19;;;8.98;100.00
55277;BME280;41136;51.478;-2.610;2023-04-01T05:34:57;99434.47;;;9.33;100.00
55277;BME280;41136;51.478;-2.610;2023-04-01T05:37:22;99438.74;;;9.09;100.00
55277;BME280;41136;51.478;-2.610;2023-04-01T05:39:48;99442.40;;;8.68;100.00
55277;BME280;41136;51.478;-2.610;2023-04-01T05:42:13;99441.77;;;8.65;100.00
55277;BME280;41136;51.478;-2.610;2023-04-01T05:44:38;99439.91;;;9.02;100.00
55277;BME280;41136;51.478;-2.610;2023-04-01T05:47:04;99446.94;;;8.39;100.00
55277;BME280;41136;51.478;-2.610;2023-04-01T05:49:29;99446.82;;;8.90;100.00
55277;BME280;41136;51.478;-2.610;2023-04-01T05:51:55;99453.23;;;8.28;100.00
55277;BME280;41136;51.478;-2.610;2023-04-01T05:54:20;99456.76;;;8.66;100.00
55277;BME280;41136;51.478;-2.610;2023-04-01T05:56:45;99459.71;;;8.68;100.00
55277;BME280;41136;51.478;-2.610;2023-04-01T05:59:11;99460.50;;;9.05;100.00
55277;BME280;41136;51.478;-2.610;2023-04-01T06:01:36;99459.73;;;9.26;100.00
55277;BME280;41136;51.478;-2.610;2023-04-01T06:04:01;99461.65;;;8.82;100.00
55277;BME280;41136;51.478;-2.610;2023-04-01T06:06:28;99461.89;;;9.02;100.00
55277;BME280;41136;51.478;-2.610;2023-04-01T06:08:53;99463.79;;;9.32;100.00
55277;BME280;41136;51.478;-2.610;2023-04-01T06:11:24;99465.84;;;8.90;100.00
55277;BME280;41136;51.478;-2.610;2023-04-01T06:16:14;99471.12;;;8.90;100.00
55277;BME280;41136;51.478;-2.610;2023-04-01T06:18:44;99474.14;;;8.80;100.00
55277;BME280;41136;51.478;-2.610;2023-04-01T06:21:05;99477.94;;;9.40;100.00
55277;BME280;41136;51.478;-2.610;2023-04-01T06:23:31;99482.49;;;8.69;100.00
55277;BME280;41136;51.478;-2.610;2023-04-01T06:25:58;99481.10;;;8.77;100.00
55277;BME280;41136;51.478;-2.610;2023-04-01T06:28:27;99482.76;;;8.96;100.00
55277;BME280;41136;51.478;-2.610;2023-04-01T06:30:43;99488.43;;;8.69;100.00
55277;BME280;41136;51.478;-2.610;2023-04-01T06:33:19;99487.32;;;8.74;100.00
55277;BME280;41136;51.478;-2.610;2023-04-01T06:35:42;99492.89;;;8.45;100.00
55277;BME280;41136;51.478;-2.610;2023-04-01T06:40:35;99493.28;;;9.25;100.00
55277;BME280;41136;51.478;-2.610;2023-04-01T06:42:58;99497.87;;;8.92;100.00
55277;BME280;41136;51.478;-2.610;2023-04-01T06:45:22;99498.85;;;8.87;100.00
55277;BME280;41136;51.478;-2.610;2023-04-01T06:47:48;99504.58;;;9.13;100.00
55277;BME280;41136;51.478;-2.610;2023-04-01T06:50:07;99506.90;;;8.97;100.00
55277;BME280;41136;51.478;-2.610;2023-04-01T06:52:37;99509.40;;;8.78;100.00
55277;BME280;41136;51.478;-2.610;2023-04-01T06:54:58;99516.73;;;9.39;100.00
55277;BME280;41136;51.478;-2.610;2023-04-01T06:57:24;99518.20;;;8.78;100.00
55277;BME280;41136;51.478;-2.610;2023-04-01T06:59:44;99521.31;;;8.51;100.00
55277;BME280;41136;51.478;-2.610;2023-04-01T07:02:20;99527.57;;;8.44;100.00
55277;BME280;41136;51.478;-2.610;2023-04-01T07:04:36;99528.23;;;9.03;100.00
55277;BME280;41136;51.478;-2.610;2023-04-01T07:07:01;99534.33;;;9.08;100.00
55277;BME280;41136;51.478;-2.610;2023-04-01T07:09:27;99539.31;;;8.72;100.00
55277;BME280;41136;51.478;-2.610;2023-04-01T07:11:50;99539.61;;;8.51;100.00
55277;BME280;41136;51.478;-2.610;2023-04-01T07:14:20;99541.70;;;8.78;100.00
55277;BME280;41136;51.478;-2.610;2023-04-01T07:16:44;99546.72;;;8.64;100.00
55277;BME280;41136;51.478;-2.610;2023-04-01T07:19:09;99549.54;;;8.85;100.00
55277;BME280;41136;51.478;-2.610;2023-04-01T07:21:35;99551.22;;;8.74;100.00
55277;BME280;41136;51.478;-2.610;2023-04-01T07:24:01;99552.48;;;8.63;100.00
55277;BME280;41136;51.478;-2.610;2023-04-01T07:26:23;99558.78;;;8.07;100.00
55277;BME280;41136;51.478;-2.610;2023-04-01T07:28:46;99561.90;;;8.09;100.00
55277;BME280;41136;51.478;-2.610;2023-04-01T07:31:20;99560.86;;;8.41;100.00
55277;BME280;41136;51.478;-2.610;2023-04-01T07:33:41;99563.58;;;8.58;100.00
55277;BME280;41136;51.478;-2.610;2023-04-01T07:36:05;99567.63;;;8.55;100.00
55277;BME280;41136;51.478;-2.610;2023-04-01T07:38:35;99568.06;;;8.04;100.00
55277;BME280;41136;51.478;-2.610;2023-04-01T07:40:58;99570.47;;;8.56;100.00
55277;BME280;41136;51.478;-2.610;2023-04-01T07:43:32;99570.76;;;8.80;100.00
55277;BME280;41136;51.478;-2.610;2023-04-01T07:45:50;99572.31;;;8.79;100.00
55277;BME280;41136;51.478;-2.610;2023-04-01T07:48:19;99574.16;;;9.44;100.00
55277;BME280;41136;51.478;-2.610;2023-04-01T07:50:38;99583.35;;;9.18;100.00
55277;BME280;41136;51.478;-2.610;2023-04-01T07:53:08;99580.77;;;8.70;100.00
55277;BME280;41136;51.478;-2.610;2023-04-01T07:55:30;99581.98;;;8.91;100.00
55277;BME280;41136;51.478;-2.610;2023-04-01T07:57:57;99583.81;;;8.96;100.00
55277;BME280;41136;51.478;-2.610;2023-04-01T08:00:19;99586.60;;;9.25;100.00
55277;BME280;41136;51.478;-2.610;2023-04-01T08:02:54;99588.58;;;9.20;100.00
55277;BME280;41136;51.478;-2.610;2023-04-01T08:05:15;99591.67;;;8.96;100.00
55277;BME280;41136;51.478;-2.610;2023-04-01T08:07:38;99593.89;;;9.20;100.00
55277;BME280;41136;51.478;-2.610;2023-04-01T08:10:04;99593.86;;;9.40;100.00
55277;BME280;41136;51.478;-2.610;2023-04-01T08:12:32;99598.19;;;8.55;100.00
55277;BME280;41136;51.478;-2.610;2023-04-01T08:14:56;99607.49;;;8.22;100.00
55277;BME280;41136;51.478;-2.610;2023-04-01T08:17:18;99610.69;;;8.55;100.00
55277;BME280;41136;51.478;-2.610;2023-04-01T08:19:52;99616.86;;;7.96;100.00
55277;BME280;41136;51.478;-2.610;2023-04-01T08:22:11;99619.73;;;7.89;100.00
55277;BME280;41136;51.478;-2.610;2023-04-01T08:24:36;99633.35;;;7.75;100.00
55277;BME280;41136;51.478;-2.610;2023-04-01T08:26:58;99640.74;;;7.81;100.00
55277;BME280;41136;51.478;-2.610;2023-04-01T08:29:23;99647.80;;;7.55;100.00
55277;BME280;41136;51.478;-2.610;2023-04-01T08:31:49;99653.87;;;7.61;100.00
55277;BME280;41136;51.478;-2.610;2023-04-01T08:34:16;99657.98;;;7.81;100.00
55277;BME280;41136;51.478;-2.610;2023-04-01T08:36:38;99663.10;;;7.61;100.00
55277;BME280;41136;51.478;-2.610;2023-04-01T08:39:05;99668.22;;;7.39;100.00
55277;BME280;41136;51.478;-2.610;2023-04-01T08:46:29;99681.96;;;7.42;100.00
55277;BME280;41136;51.478;-2.610;2023-04-01T08:48:53;99684.49;;;7.43;100.00
55277;BME280;41136;51.478;-2.610;2023-04-01T08:51:20;99685.60;;;8.29;100.00
55277;BME280;41136;51.478;-2.610;2023-04-01T08:53:46;99678.29;;;7.95;100.00
55277;BME280;41136;51.478;-2.610;2023-04-01T08:56:06;99682.83;;;7.37;100.00
55277;BME280;41136;51.478;-2.610;2023-04-01T08:58:35;99683.12;;;7.28;100.00
55277;BME280;41136;51.478;-2.610;2023-04-01T09:00:53;99690.76;;;7.34;100.00
55277;BME280;41136;51.478;-2.610;2023-04-01T09:08:18;99696.35;;;8.51;100.00
55277;BME280;41136;51.478;-2.610;2023-04-01T09:10:41;99697.85;;;9.09;100.00
55277;BME280;41136;51.478;-2.610;2023-04-01T09:13:08;99699.88;;;9.32;100.00
55277;BME280;41136;51.478;-2.610;2023-04-01T09:15:30;99700.52;;;9.98;100.00
55277;BME280;41136;51.478;-2.610;2023-04-01T09:18:01;99702.74;;;9.43;100.00
55277;BME280;41136;51.478;-2.610;2023-04-01T09:20:20;99705.86;;;9.26;100.00
55277;BME280;41136;51.478;-2.610;2023-04-01T09:22:49;99711.60;;;9.19;100.00
55277;BME280;41136;51.478;-2.610;2023-04-01T09:27:31;99719.15;;;8.79;100.00
55277;BME280;41136;51.478;-2.610;2023-04-01T09:34:53;99720.29;;;9.66;100.00
55277;BME280;41136;51.478;-2.610;2023-04-01T09:37:17;99722.77;;;9.95;100.00
55277;BME280;41136;51.478;-2.610;2023-04-01T09:39:37;99724.55;;;9.66;100.00
55277;BME280;41136;51.478;-2.610;2023-04-01T09:42:13;99727.86;;;9.09;100.00
55277;BME280;41136;51.478;-2.610;2023-04-01T09:44:32;99728.72;;;9.20;100.00
55277;BME280;41136;51.478;-2.610;2023-04-01T09:47:03;99728.18;;;9.50;100.00
55277;BME280;41136;51.478;-2.610;2023-04-01T09:51:52;99731.49;;;9.89;100.00
55277;BME280;41136;51.478;-2.610;2023-04-01T09:54:17;99735.46;;;9.71;100.00
55277;BME280;41136;51.478;-2.610;2023-04-01T10:11:18;99767.57;;;9.43;100.00
55277;BME280;41136;51.478;-2.610;2023-04-01T10:16:03;99774.50;;;8.63;100.00
55277;BME280;41136;51.478;-2.610;2023-04-01T10:18:30;99781.69;;;8.32;100.00
55277;BME280;41136;51.478;-2.610;2023-04-01T10:20:54;99781.88;;;8.71;100.00
55277;BME280;41136;51.478;-2.610;2023-04-01T10:23:20;99787.63;;;8.80;100.00
55277;BME280;41136;51.478;-2.610;2023-04-01T10:28:11;99796.70;;;8.98;100.00
55277;BME280;41136;51.478;-2.610;2023-04-01T10:40:20;99811.36;;;9.08;100.00
55277;BME280;41136;51.478;-2.610;2023-04-01T10:50:05;99830.43;;;8.74;100.00
55277;BME280;41136;51.478;-2.610;2023-04-01T10:52:23;99835.13;;;8.52;100.00
55277;BME280;41136;51.478;-2.610;2023-04-01T10:54:47;99833.65;;;9.20;100.00
55277;BME280;41136;51.478;-2.610;2023-04-01T11:07:00;99857.67;;;8.46;100.00
55277;BME280;41136;51.478;-2.610;2023-04-01T11:19:08;99869.68;;;9.82;100.00
55277;BME280;41136;51.478;-2.610;2023-04-01T11:21:32;99872.03;;;9.61;100.00
55277;BME280;41136;51.478;-2.610;2023-04-01T11:23:54;99879.24;;;10.38;100.00
55277;BME280;41136;51.478;-2.610;2023-04-01T11:26:20;99880.75;;;10.91;100.00
55277;BME280;41136;51.478;-2.610;2023-04-01T11:28:52;99886.97;;;10.24;100.00
55277;BME280;41136;51.478;-2.610;2023-04-01T11:31:12;99889.26;;;9.99;100.00
55277;BME280;41136;51.478;-2.610;2023-04-01T11:33:36;99897.27;;;9.57;100.00
55277;BME280;41136;51.478;-2.610;2023-04-01T11:36:08;99900.42;;;10.54;100.00
55277;BME280;41136;51.478;-2.610;2023-04-01T11:38:38;99899.49;;;10.86;100.00
55277;BME280;41136;51.478;-2.610;2023-04-01T11:40:54;99899.85;;;10.87;100.00
55277;BME280;41136;51.478;-2.610;2023-04-01T11:43:19;99912.82;;;9.01;100.00
55277;BME280;41136;51.478;-2.610;2023-04-01T11:45:45;99914.75;;;9.89;100.00
55277;BME280;41136;51.478;-2.610;2023-04-01T11:48:15;99922.95;;;9.72;100.00
55277;BME280;41136;51.478;-2.610;2023-04-01T11:50:37;99930.52;;;8.70;100.00
55277;BME280;41136;51.478;-2.610;2023-04-01T11:53:10;99937.78;;;8.85;100.00
55277;BME280;41136;51.478;-2.610;2023-04-01T11:55:27;99941.65;;;8.56;100.00
55277;BME280;41136;51.478;-2.610;2023-04-01T11:57:53;99951.07;;;8.16;100.00
55277;BME280;41136;51.478;-2.610;2023-04-01T12:00:26;99952.77;;;8.76;100.00
55277;BME280;41136;51.478;-2.610;2023-04-01T12:02:44;99958.38;;;8.40;100.00
55277;BME280;41136;51.478;-2.610;2023-04-01T12:05:16;99962.65;;;7.82;100.00
55277;BME280;41136;51.478;-2.610;2023-04-01T12:07:42;99975.45;;;8.31;100.00
55277;BME280;41136;51.478;-2.610;2023-04-01T12:09:58;99976.30;;;8.16;100.00
55277;BME280;41136;51.478;-2.610;2023-04-01T12:12:24;99982.11;;;8.64;100.00
55277;BME280;41136;51.478;-2.610;2023-04-01T12:14:50;99988.64;;;7.94;100.00
55277;BME280;41136;51.478;-2.610;2023-04-01T12:17:13;99986.08;;;8.51;100.00
55277;BME280;41136;51.478;-2.610;2023-04-01T12:19:40;99988.53;;;8.28;100.00
55277;BME280;41136;51.478;-2.610;2023-04-01T12:22:11;99992.90;;;7.64;100.00
55277;BME280;41136;51.478;-2.610;2023-04-01T12:24:35;99994.60;;;8.07;100.00
55277;BME280;41136;51.478;-2.610;2023-04-01T12:27:02;100001.44;;;8.50;100.00
55277;BME280;41136;51.478;-2.610;2023-04-01T12:31:47;100000.33;;;9.42;100.00
55277;BME280;41136;51.478;-2.610;2023-04-01T12:36:43;100014.59;;;8.61;100.00
55277;BME280;41136;51.478;-2.610;2023-04-01T12:41:29;100021.31;;;9.03;100.00
55277;BME280;41136;51.478;-2.610;2023-04-01T12:44:07;100027.27;;;9.02;100.00
55277;BME280;41136;51.478;-2.610;2023-04-01T12:46:21;100027.09;;;8.20;100.00
55277;BME280;41136;51.478;-2.610;2023-04-01T12:51:16;100032.74;;;8.20;100.00
55277;BME280;41136;51.478;-2.610;2023-04-01T12:53:42;100034.06;;;8.28;100.00
55277;BME280;41136;51.478;-2.610;2023-04-01T12:55:57;100040.64;;;7.96;100.00
55277;BME280;41136;51.478;-2.610;2023-04-01T12:58:37;100045.35;;;7.91;100.00
55277;BME280;41136;51.478;-2.610;2023-04-01T13:00:59;100048.89;;;8.52;100.00
55277;BME280;41136;51.478;-2.610;2023-04-01T13:03:22;100059.46;;;7.33;100.00
55277;BME280;41136;51.478;-2.610;2023-04-01T13:05:56;100064.64;;;8.51;100.00
55277;BME280;41136;51.478;-2.610;2023-04-01T13:08:14;100065.59;;;8.80;100.00
55277;BME280;41136;51.478;-2.610;2023-04-01T13:10:43;100066.05;;;8.91;100.00
55277;BME280;41136;51.478;-2.610;2023-04-01T13:13:10;100071.65;;;8.73;100.00
55277;BME280;41136;51.478;-2.610;2023-04-01T13:15:26;100074.83;;;8.64;100.00
55277;BME280;41136;51.478;-2.610;2023-04-01T13:17:53;100073.44;;;8.78;100.00
55277;BME280;41136;51.478;-2.610;2023-04-01T13:20:18;100072.48;;;9.01;100.00
55277;BME280;41136;51.478;-2.610;2023-04-01T13:22:49;100082.64;;;9.45;100.00
55277;BME280;41136;51.478;-2.610;2023-04-01T13:25:09;100082.83;;;8.89;100.00
55277;BME280;41136;51.478;-2.610;2023-04-01T13:27:33;100091.25;;;8.66;100.00
55277;BME280;41136;51.478;-2.610;2023-04-01T13:30:04;100088.25;;;8.50;100.00
55277;BME280;41136;51.478;-2.610;2023-04-01T13:32:24;100093.10;;;8.43;100.00
55277;BME280;41136;51.478;-2.610;2023-04-01T13:34:55;100098.79;;;8.43;100.00
55277;BME280;41136;51.478;-2.610;2023-04-01T13:37:20;100103.56;;;7.99;100.00
55277;BME280;41136;51.478;-2.610;2023-04-01T13:39:46;100109.36;;;8.42;100.00
55277;BME280;41136;51.478;-2.610;2023-04-01T13:42:11;100107.36;;;8.17;100.00
55277;BME280;41136;51.478;-2.610;2023-04-01T13:44:32;100109.36;;;8.63;100.00
55277;BME280;41136;51.478;-2.610;2023-04-01T13:47:05;100113.91;;;8.58;100.00
55277;BME280;41136;51.478;-2.610;2023-04-01T13:49:24;100114.88;;;9.01;100.00
55277;BME280;41136;51.478;-2.610;2023-04-01T13:51:51;100125.12;;;9.39;100.00
55277;BME280;41136;51.478;-2.610;2023-04-01T13:54:22;100126.65;;;9.82;100.00
55277;BME280;41136;51.478;-2.610;2023-04-01T13:56:37;100129.39;;;9.64;100.00
55277;BME280;41136;51.478;-2.610;2023-04-01T13:59:08;100131.22;;;9.31;100.00
55277;BME280;41136;51.478;-2.610;2023-04-01T14:01:31;100132.36;;;8.61;100.00
55277;BME280;41136;51.478;-2.610;2023-04-01T14:04:00;100136.64;;;8.86;100.00
55277;BME280;41136;51.478;-2.610;2023-04-01T14:06:21;100141.42;;;9.01;100.00
55277;BME280;41136;51.478;-2.610;2023-04-01T14:08:55;100145.61;;;9.44;100.00
55277;BME280;41136;51.478;-2.610;2023-04-01T14:11:13;100150.97;;;9.40;100.00
55277;BME280;41136;51.478;-2.610;2023-04-01T14:13:34;100150.89;;;9.39;100.00
55277;BME280;41136;51.478;-2.610;2023-04-01T14:16:04;100155.69;;;9.67;100.00
55277;BME280;41136;51.478;-2.610;2023-04-01T14:18:30;100155.84;;;9.08;100.00